Time;durP1;ratioP1;P1;durP2;ratioP2;P2;SDS_P1;SDS_P2;PMS_P1;PMS_P2;Temp;Humidity;BMP_temperature;BMP_pressure;BME280_temperature;BME280_humidity;BME280_pressure;Samples;Min_cycle;Max_cycle;Signal;HPM_P1;HPM_P2
2023/01/16 00:00:11;;;;;;;;;1.67;1.33;;;;;9.40;66.17;99149.22;2076266;28;46110;-64
2023/01/16 00:01:13;;;;;;;;;2.00;1.00;;;;;9.41;66.30;99140.34;2070796;28;47981;-62
2023/01/16 00:02:13;;;;;;;;;1.00;1.00;;;;;9.41;66.25;99131.53;2070668;28;46862;-64
2023/01/16 00:03:13;;;;;;;;;1.00;1.00;;;;;9.41;65.96;99132.38;2071569;27;45569;-65
2023/01/16 00:04:14;;;;;;;;;3.00;1.00;;;;;9.41;66.07;99119.16;2070775;27;46555;-63
2023/01/16 00:05:14;;;;;;;;;2.00;1.00;;;;;9.42;66.45;99120.88;2067403;28;45640;-64
2023/01/16 00:06:14;;;;;;;;;0.33;0.33;;;;;9.41;66.50;99108.56;2063005;28;46247;-63
2023/01/16 00:07:15;;;;;;;;;3.33;3.33;;;;;9.41;66.08;99107.69;2062848;28;46805;-64
2023/01/16 00:08:16;;;;;;;;;3.00;1.00;;;;;9.40;66.36;99112.13;2064934;27;47400;-64
2023/01/16 00:09:16;;;;;;;;;2.00;2.00;;;;;9.41;66.41;99108.56;2071671;27;46658;-64
2023/01/16 00:10:17;;;;;;;;;2.33;1.33;;;;;9.40;66.29;99098.00;2070796;27;46651;-64
2023/01/16 00:11:17;;;;;;;;;2.33;0.00;;;;;9.40;66.12;99095.34;2071027;27;45694;-64
2023/01/16 00:12:17;;;;;;;;;0.67;0.33;;;;;9.39;66.41;99072.47;2071283;28;46296;-64
2023/01/16 00:13:18;;;;;;;;;2.00;1.00;;;;;9.41;66.34;99083.88;2071197;28;46249;-64
2023/01/16 00:14:18;;;;;;;;;2.33;2.00;;;;;9.41;66.53;99079.44;2071004;27;46194;-64
2023/01/16 00:15:18;;;;;;;;;2.00;2.00;;;;;9.43;66.12;99068.78;2070747;27;46144;-65
2023/01/16 00:16:20;;;;;;;;;3.00;3.00;;;;;9.43;66.37;99059.03;2070795;28;46422;-64
2023/01/16 00:17:21;;;;;;;;;1.50;1.50;;;;;9.45;66.33;99051.03;2071066;28;46943;-65
2023/01/16 00:18:21;;;;;;;;;0.67;0.67;;;;;9.45;66.45;99043.09;2076242;28;45444;-64
2023/01/16 00:19:21;;;;;;;;;2.33;1.00;;;;;9.45;66.54;99048.38;2078602;28;46540;-64
2023/01/16 00:20:22;;;;;;;;;1.00;1.00;;;;;9.46;66.56;99028.06;2070002;28;46366;-65
2023/01/16 00:21:26;;;;;;;;;2.00;2.00;;;;;9.46;66.61;99034.22;2104100;28;46037;-64
2023/01/16 00:22:27;;;;;;;;;2.00;2.00;;;;;9.46;66.63;99025.41;2094582;28;46607;-63
2023/01/16 00:23:27;;;;;;;;;4.33;2.00;;;;;9.46;66.72;99022.75;2070797;27;45695;-64
2023/01/16 00:24:28;;;;;;;;;1.00;1.00;;;;;9.44;66.66;99005.16;2070700;28;46083;-64
2023/01/16 00:25:28;;;;;;;;;1.00;1.00;;;;;9.44;66.69;99004.31;2065379;28;45340;-65
2023/01/16 00:26:29;;;;;;;;;2.00;2.00;;;;;9.43;66.81;98998.16;2075101;28;46345;-65
2023/01/16 00:27:30;;;;;;;;;0.75;0.50;;;;;9.44;66.64;99002.50;2062678;28;46914;-64
2023/01/16 00:28:32;;;;;;;;;1.00;1.00;;;;;9.45;66.86;98982.19;2062835;28;46280;-64
2023/01/16 00:29:32;;;;;;;;;1.00;1.00;;;;;9.45;67.04;98976.91;2063012;28;46537;-64
2023/01/16 00:30:32;;;;;;;;;0.00;0.00;;;;;9.43;66.93;98969.03;2061337;28;46600;-65
2023/01/16 00:31:33;;;;;;;;;2.00;1.00;;;;;9.44;66.63;98959.28;2062496;28;45831;-65
2023/01/16 00:32:33;;;;;;;;;1.00;1.00;;;;;9.43;66.89;98950.50;2068475;28;46599;-64
2023/01/16 00:33:34;;;;;;;;;2.00;2.00;;;;;9.44;66.78;98940.75;2062408;27;46569;-64
2023/01/16 00:34:34;;;;;;;;;1.67;1.67;;;;;9.45;66.70;98937.19;2066601;28;46829;-64
2023/01/16 00:35:34;;;;;;;;;0.67;0.67;;;;;9.47;66.75;98935.31;2070337;28;45263;-64
2023/01/16 00:36:35;;;;;;;;;1.00;1.00;;;;;9.47;66.67;98929.16;2069929;27;46391;-64
2023/01/16 00:37:35;;;;;;;;;0.00;0.00;;;;;9.47;66.55;98922.06;2070779;28;46030;-64
2023/01/16 00:38:36;;;;;;;;;0.67;0.67;;;;;9.46;66.67;98908.91;2071067;27;45870;-64
2023/01/16 00:39:38;;;;;;;;;2.25;1.25;;;;;9.44;66.81;98904.56;2070869;28;46499;-64
2023/01/16 00:40:38;;;;;;;;;1.00;1.00;;;;;9.44;66.85;98896.59;2070839;28;46705;-64
2023/01/16 00:41:38;;;;;;;;;1.00;1.00;;;;;9.45;66.61;98889.53;2070304;27;46438;-64
2023/01/16 00:42:39;;;;;;;;;2.00;2.00;;;;;9.46;66.83;98891.25;2070702;28;46600;-64
2023/01/16 00:43:39;;;;;;;;;0.67;0.67;;;;;9.46;66.58;98882.44;2070139;28;46775;-64
2023/01/16 00:44:39;;;;;;;;;1.33;1.33;;;;;9.44;66.69;98882.50;2070424;28;45768;-64
2023/01/16 00:45:40;;;;;;;;;1.67;1.67;;;;;9.43;66.93;98873.72;2069862;28;46625;-65
2023/01/16 00:46:40;;;;;;;;;1.00;1.00;;;;;9.42;66.46;98866.69;2070782;28;46281;-64
2023/01/16 00:47:41;;;;;;;;;2.00;1.00;;;;;9.42;66.73;98860.53;2068811;28;45510;-64
2023/01/16 00:48:41;;;;;;;;;0.00;0.00;;;;;9.41;66.61;98851.75;2062375;28;46688;-64
2023/01/16 00:49:42;;;;;;;;;0.00;0.00;;;;;9.43;66.76;98846.38;2080066;27;46492;-64
2023/01/16 00:50:42;;;;;;;;;1.33;0.00;;;;;9.43;66.68;98841.94;2110377;27;45932;-65
2023/01/16 00:51:42;;;;;;;;;1.67;0.67;;;;;9.43;66.83;98830.50;2070225;28;46679;-64
2023/01/16 00:52:43;;;;;;;;;1.00;1.00;;;;;9.44;66.75;98837.50;2072232;28;46632;-64
2023/01/16 00:53:43;;;;;;;;;0.00;0.00;;;;;9.44;66.52;98819.81;2070968;28;45526;-65
2023/01/16 00:54:43;;;;;;;;;0.33;0.33;;;;;9.46;66.71;98814.47;2070870;28;46673;-65
2023/01/16 00:55:44;;;;;;;;;0.00;0.00;;;;;9.44;66.54;98801.28;2070447;28;46798;-65
2023/01/16 00:56:44;;;;;;;;;0.67;0.67;;;;;9.46;66.77;98795.06;2070862;28;45916;-64
2023/01/16 00:57:44;;;;;;;;;0.00;0.00;;;;;9.45;66.40;98799.50;2065274;28;46236;-64
2023/01/16 00:58:45;;;;;;;;;1.00;1.00;;;;;9.46;66.48;98782.69;2061745;28;46420;-64
2023/01/16 00:59:45;;;;;;;;;1.00;1.00;;;;;9.47;66.61;98778.25;2064585;28;46481;-64
2023/01/16 01:00:45;;;;;;;;;1.00;1.00;;;;;9.48;66.54;98782.59;2070513;28;46230;-63
2023/01/16 01:01:46;;;;;;;;;1.00;1.00;;;;;9.47;66.50;98772.94;2062736;28;45579;-63
2023/01/16 01:02:49;;;;;;;;;1.00;0.00;;;;;9.48;66.45;98769.38;2061520;28;46629;-65
2023/01/16 01:03:49;;;;;;;;;0.00;0.00;;;;;9.48;66.60;98758.78;2092654;27;46563;-65
2023/01/16 01:04:50;;;;;;;;;1.00;1.00;;;;;9.47;66.55;98744.69;2067255;28;46354;-63
2023/01/16 01:05:50;;;;;;;;;0.00;0.00;;;;;9.48;66.52;98735.81;2067092;28;46342;-64
2023/01/16 01:06:51;;;;;;;;;1.00;1.00;;;;;9.50;66.46;98741.03;2070598;27;46439;-65
2023/01/16 01:07:51;;;;;;;;;0.67;0.67;;;;;9.49;66.53;98737.50;2070274;28;46224;-63
2023/01/16 01:08:51;;;;;;;;;0.33;0.33;;;;;9.52;66.36;98717.97;2070816;28;45758;-64
2023/01/16 01:09:52;;;;;;;;;2.00;1.00;;;;;9.52;66.42;98713.53;2070567;28;46690;-64
2023/01/16 01:10:52;;;;;;;;;0.00;0.00;;;;;9.54;66.23;98713.47;2070660;28;46507;-64
2023/01/16 01:11:52;;;;;;;;;0.67;0.67;;;;;9.55;66.21;98702.81;2070570;28;45538;-64
2023/01/16 01:12:54;;;;;;;;;1.67;1.67;;;;;9.57;66.55;98702.72;2070492;28;46422;-64
2023/01/16 01:13:55;;;;;;;;;0.25;0.25;;;;;9.58;66.14;98701.78;2066145;28;45845;-64
2023/01/16 01:14:55;;;;;;;;;0.00;0.00;;;;;9.60;66.37;98694.63;2052724;28;46123;-65
2023/01/16 01:15:55;;;;;;;;;0.67;0.00;;;;;9.59;66.51;98682.31;2061259;28;46271;-64
2023/01/16 01:16:56;;;;;;;;;0.67;0.67;;;;;9.59;66.31;98677.88;2062710;28;45944;-63
2023/01/16 01:17:57;;;;;;;;;1.00;0.33;;;;;9.60;66.13;98684.03;2061563;28;46723;-64
2023/01/16 01:18:58;;;;;;;;;2.00;0.75;;;;;9.58;66.28;98660.28;2068538;27;46518;-63
2023/01/16 01:19:58;;;;;;;;;2.00;1.00;;;;;9.58;66.33;98662.06;2069900;28;46383;-64
2023/01/16 01:20:58;;;;;;;;;1.00;1.00;;;;;9.58;66.17;98652.34;2069679;28;46757;-64
2023/01/16 01:21:59;;;;;;;;;0.33;0.33;;;;;9.58;66.19;98644.41;2063715;28;45483;-64
2023/01/16 01:22:59;;;;;;;;;1.33;1.33;;;;;9.59;66.34;98634.66;2063777;28;46553;-65
2023/01/16 01:23:59;;;;;;;;;1.00;1.00;;;;;9.59;66.32;98626.72;2070022;28;46967;-64
2023/01/16 01:25:00;;;;;;;;;0.00;0.00;;;;;9.59;66.09;98622.28;2073605;28;47177;-65
2023/01/16 01:26:26;;;;;;;;;1.00;0.00;;;;;9.59;66.17;98610.81;2070546;28;46556;-64
2023/01/16 01:27:26;;;;;;;;;1.00;0.00;;;;;9.58;66.33;98612.63;2070352;28;46742;-64
2023/01/16 01:28:27;;;;;;;;;2.00;1.67;;;;;9.58;66.16;98601.16;2078171;28;46252;-64
2023/01/16 01:29:27;;;;;;;;;0.00;0.00;;;;;9.58;66.24;98586.13;2080778;28;46492;-64
2023/01/16 01:30:27;;;;;;;;;1.00;0.67;;;;;9.57;66.30;98573.84;2087230;28;46776;-64
2023/01/16 01:31:28;;;;;;;;;1.00;0.00;;;;;9.59;66.07;98569.31;2081059;28;46833;-65
2023/01/16 01:32:28;;;;;;;;;1.00;1.00;;;;;9.60;66.20;98564.88;2077339;28;46465;-63
2023/01/16 01:33:28;;;;;;;;;0.00;0.00;;;;;9.60;66.30;98571.03;2070310;28;46229;-64
2023/01/16 01:34:32;;;;;;;;;0.00;0.00;;;;;9.61;66.51;98571.88;2076224;28;46307;-65
2023/01/16 01:35:33;;;;;;;;;1.50;0.75;;;;;9.60;66.37;98556.94;2070324;28;46502;-64
2023/01/16 01:36:33;;;;;;;;;3.00;1.00;;;;;9.58;66.21;98559.66;2045712;28;46825;-64
2023/01/16 01:37:34;;;;;;;;;1.00;1.00;;;;;9.59;66.02;98549.91;2057182;28;46549;-64
2023/01/16 01:38:35;;;;;;;;;1.00;1.00;;;;;9.57;66.23;98528.81;2078142;28;46275;-64
2023/01/16 01:39:35;;;;;;;;;1.00;1.00;;;;;9.58;66.13;98538.47;2078660;28;46362;-64
2023/01/16 01:40:36;;;;;;;;;0.00;0.00;;;;;9.57;66.15;98518.22;2078674;28;46818;-64
2023/01/16 01:41:36;;;;;;;;;0.00;0.00;;;;;9.57;66.36;98507.63;2069891;28;46559;-65
2023/01/16 01:42:43;;;;;;;;;1.00;0.00;;;;;9.57;66.08;98518.22;2069292;28;46761;-65
2023/01/16 01:43:45;;;;;;;;;0.25;0.25;;;;;9.57;66.17;98515.59;2072758;28;46446;-64
2023/01/16 01:44:50;;;;;;;;;1.00;0.00;;;;;9.56;65.96;98497.13;2069189;28;46889;-63
2023/01/16 01:45:54;;;;;;;;;0.00;0.00;;;;;9.56;66.17;98494.47;2077675;28;46421;-65
2023/01/16 01:46:54;;;;;;;;;0.00;0.00;;;;;9.56;66.14;98490.03;2078794;28;46023;-64
2023/01/16 01:48:02;;;;;;;;;1.33;1.00;;;;;9.57;66.54;98467.06;2078707;28;45932;-64
2023/01/16 01:49:25;;;;;;;;;0.25;0.25;;;;;9.56;66.39;98466.22;2078484;28;46329;-63
2023/01/16 01:50:47;;;;;;;;;0.00;0.00;;;;;9.55;66.54;98456.56;2078393;28;46302;-64
2023/01/16 01:51:49;;;;;;;;;0.00;0.00;;;;;9.55;66.66;98442.47;2078612;28;45685;-65
2023/01/16 01:52:52;;;;;;;;;0.00;0.00;;;;;9.53;66.79;98447.84;2078184;28;45817;-64
2023/01/16 01:53:57;;;;;;;;;0.00;0.00;;;;;9.52;67.00;98456.69;2077016;28;46489;-65
2023/01/16 01:55:04;;;;;;;;;0.00;0.00;;;;;9.51;67.20;98443.53;2077984;28;46918;-64
2023/01/16 01:56:11;;;;;;;;;0.00;0.00;;;;;9.50;67.22;98428.59;2078872;28;46214;-63
2023/01/16 01:57:22;;;;;;;;;1.00;0.00;;;;;9.49;67.05;98409.22;2078657;28;46462;-64
2023/01/16 01:58:27;;;;;;;;;1.00;0.75;;;;;9.48;67.20;98412.81;2078157;28;46683;-64
2023/01/16 01:59:33;;;;;;;;;1.00;1.00;;;;;9.50;67.27;98404.78;2079012;28;45964;-65
2023/01/16 02:00:33;;;;;;;;;1.75;0.00;;;;;9.51;67.57;98398.53;2072919;28;46385;-63
2023/01/16 02:01:35;;;;;;;;;0.00;0.00;;;;;9.52;67.42;98394.94;2070638;28;46469;-64
2023/01/16 02:02:41;;;;;;;;;0.00;0.00;;;;;9.52;67.67;98385.22;2078662;28;45896;-65
2023/01/16 02:03:48;;;;;;;;;0.00;0.00;;;;;9.53;67.60;98386.94;2070980;28;46909;-64
2023/01/16 02:04:51;;;;;;;;;0.25;0.25;;;;;9.53;67.46;98375.47;2068004;28;46293;-65
2023/01/16 02:05:57;;;;;;;;;0.25;0.25;;;;;9.53;67.63;98370.19;2062772;28;46334;-64
2023/01/16 02:07:02;;;;;;;;;0.50;0.00;;;;;9.51;67.96;98362.31;2052530;28;46700;-63
2023/01/16 02:08:05;;;;;;;;;1.00;1.00;;;;;9.50;67.77;98354.47;2056679;28;46203;-64
2023/01/16 02:09:06;;;;;;;;;0.75;0.00;;;;;9.50;67.73;98344.72;2070061;28;46935;-64
2023/01/16 02:10:36;;;;;;;;;1.00;1.00;;;;;9.50;67.97;98315.63;2103386;28;46351;-64
2023/01/16 02:11:43;;;;;;;;;1.75;0.00;;;;;9.50;67.95;98322.69;2090945;28;46369;-64
2023/01/16 02:12:43;;;;;;;;;0.50;0.50;;;;;9.50;68.10;98335.94;2096232;28;45718;-63
2023/01/16 02:13:43;;;;;;;;;1.00;0.00;;;;;9.48;68.55;98332.53;2094660;28;46375;-63
2023/01/16 02:14:47;;;;;;;;;2.00;1.00;;;;;9.46;68.86;98318.53;2095169;28;45157;-65
2023/01/16 02:20:13;;;;;;;;;0.75;0.75;;;;;9.36;69.33;98278.47;2095022;28;46711;-64
2023/01/16 02:21:23;;;;;;;;;0.00;0.00;;;;;9.33;70.08;98289.22;2094982;28;46364;-64
2023/01/16 02:22:45;;;;;;;;;0.50;0.50;;;;;9.30;69.88;98286.75;2095505;28;46177;-64
2023/01/16 02:24:03;;;;;;;;;1.00;1.00;;;;;9.26;70.24;98280.75;2095001;28;46878;-64
2023/01/16 02:25:41;;;;;;;;;2.75;1.00;;;;;9.26;70.05;98261.38;2086103;28;46368;-64
2023/01/16 02:27:15;;;;;;;;;1.00;1.00;;;;;9.26;70.08;98250.81;2091660;28;46324;-64
2023/01/16 02:28:47;;;;;;;;;2.25;0.25;;;;;9.27;70.33;98263.94;2088804;28;46128;-64
2023/01/16 02:30:19;;;;;;;;;1.00;0.00;;;;;9.28;70.43;98256.88;2093508;28;46984;-64
2023/01/16 02:31:34;;;;;;;;;0.75;0.75;;;;;9.28;70.39;98236.56;2095156;28;46814;-64
2023/01/16 02:33:11;;;;;;;;;2.00;0.25;;;;;9.26;70.89;98221.69;2095610;28;46537;-64
2023/01/16 02:34:17;;;;;;;;;0.50;0.50;;;;;9.24;70.90;98211.19;2094864;28;46277;-63
2023/01/16 02:35:41;;;;;;;;;0.00;0.00;;;;;9.22;70.60;98213.06;2088883;28;46728;-65
2023/01/16 02:37:03;;;;;;;;;0.00;0.00;;;;;9.21;70.71;98206.09;2095327;28;45704;-64
2023/01/16 02:38:13;;;;;;;;;1.50;0.00;;;;;9.19;71.09;98193.88;2089311;28;46051;-65
2023/01/16 02:39:28;;;;;;;;;0.00;0.00;;;;;9.18;70.99;98181.59;2088569;28;46635;-65
2023/01/16 02:40:58;;;;;;;;;1.00;0.00;;;;;9.14;70.70;98199.41;2094635;28;46761;-65
2023/01/16 02:42:08;;;;;;;;;0.00;0.00;;;;;9.12;70.73;98182.78;2074295;28;46709;-64
2023/01/16 02:43:28;;;;;;;;;0.00;0.00;;;;;9.09;71.11;98175.88;2079786;28;46452;-64
2023/01/16 02:44:47;;;;;;;;;0.00;0.00;;;;;9.07;70.94;98176.91;2086633;28;47039;-64
2023/01/16 02:45:59;;;;;;;;;1.25;0.25;;;;;9.07;70.98;98169.81;2092216;28;46563;-64
2023/01/16 02:47:20;;;;;;;;;0.00;0.00;;;;;9.06;70.88;98154.88;2092531;28;46619;-64
2023/01/16 02:48:49;;;;;;;;;0.00;0.00;;;;;9.06;71.26;98136.38;2086603;28;46297;-64
2023/01/16 02:49:57;;;;;;;;;0.25;0.25;;;;;9.06;71.10;98138.16;2061829;28;46145;-65
2023/01/16 02:51:05;;;;;;;;;0.00;0.00;;;;;9.05;71.04;98136.47;2053337;28;46894;-64
2023/01/16 02:52:42;;;;;;;;;1.75;0.75;;;;;9.04;70.85;98177.09;2056189;28;46470;-64
2023/01/16 02:54:10;;;;;;;;;0.00;0.00;;;;;9.01;70.87;98130.47;2057993;28;46698;-64
2023/01/16 02:55:20;;;;;;;;;0.00;0.00;;;;;8.99;71.10;98131.50;2065177;28;46818;-64
2023/01/16 02:56:30;;;;;;;;;0.00;0.00;;;;;8.97;71.19;98123.66;2069877;28;46603;-64
2023/01/16 02:57:36;;;;;;;;;0.75;0.75;;;;;8.95;71.10;98138.75;2070294;28;46896;-65
2023/01/16 02:58:42;;;;;;;;;0.00;0.00;;;;;8.94;71.56;98109.75;2069930;27;46336;-64
2023/01/16 02:59:42;;;;;;;;;0.00;0.00;;;;;8.94;71.23;98112.41;2075529;27;46269;-63
2023/01/16 03:00:55;;;;;;;;;2.00;0.00;;;;;8.96;71.35;98105.22;2062174;28;45966;-65
2023/01/16 03:01:56;;;;;;;;;3.25;0.00;;;;;8.96;71.23;98102.59;2070819;28;45852;-65
2023/01/16 03:02:57;;;;;;;;;0.75;0.00;;;;;8.95;71.15;98099.09;2065544;28;45332;-65
2023/01/16 03:03:57;;;;;;;;;0.00;0.00;;;;;8.97;71.43;98102.50;2067004;28;46289;-64
2023/01/16 03:04:58;;;;;;;;;0.00;0.00;;;;;8.98;71.66;98085.69;2061779;28;45920;-64
2023/01/16 03:06:07;;;;;;;;;1.00;1.00;;;;;8.98;71.47;98098.91;2069940;27;45121;-65
2023/01/16 03:07:17;;;;;;;;;0.00;0.00;;;;;8.99;71.45;98070.66;2070190;28;45828;-64
2023/01/16 03:09:16;;;;;;;;;0.00;0.00;;;;;9.00;71.26;98080.28;2067466;27;46880;-64
2023/01/16 03:10:29;;;;;;;;;0.50;0.50;;;;;8.98;71.66;98068.97;2079517;28;46277;-66
2023/01/16 03:11:36;;;;;;;;;0.00;0.00;;;;;8.96;71.73;98100.78;2079984;28;45648;-64
2023/01/16 03:12:49;;;;;;;;;0.00;0.00;;;;;8.96;71.64;98068.19;2088094;28;46275;-64
2023/01/16 03:14:04;;;;;;;;;0.00;0.00;;;;;8.93;71.92;98057.81;2081295;28;46022;-64
2023/01/16 03:15:40;;;;;;;;;0.00;0.00;;;;;8.91;71.67;98064.97;2079544;28;46977;-64
2023/01/16 03:16:56;;;;;;;;;0.50;0.00;;;;;8.89;71.13;98057.09;2059746;28;46684;-65
2023/01/16 03:18:09;;;;;;;;;0.75;0.75;;;;;8.87;71.67;98064.28;2054809;28;46930;-64
2023/01/16 03:19:38;;;;;;;;;0.00;0.00;;;;;8.84;71.91;98061.81;2051720;28;45515;-65
2023/01/16 03:20:54;;;;;;;;;0.00;0.00;;;;;8.82;71.83;98039.91;2053196;28;46139;-65
2023/01/16 03:22:08;;;;;;;;;1.00;0.00;;;;;8.82;72.50;98034.59;2063156;28;46479;-64
2023/01/16 03:23:08;;;;;;;;;0.00;0.00;;;;;8.79;72.22;98033.00;2061735;28;46558;-64
2023/01/16 03:24:46;;;;;;;;;0.67;0.67;;;;;8.77;72.51;98037.53;2055300;28;45948;-64
2023/01/16 03:26:18;;;;;;;;;0.00;0.00;;;;;8.74;72.78;98042.13;2047197;28;46643;-64
2023/01/16 03:27:41;;;;;;;;;0.00;0.00;;;;;8.74;72.03;98026.25;2046785;28;46769;-64
2023/01/16 03:28:53;;;;;;;;;0.50;0.00;;;;;8.72;72.45;98020.19;2031382;29;46702;-65
2023/01/16 03:30:22;;;;;;;;;0.00;0.00;;;;;8.71;72.45;98029.06;2031430;29;46195;-65
2023/01/16 03:31:33;;;;;;;;;0.00;0.00;;;;;8.70;72.34;98016.81;2031368;29;46222;-65
2023/01/16 03:32:46;;;;;;;;;0.00;0.00;;;;;8.68;72.50;98024.81;2030874;29;47182;-65
2023/01/16 03:33:52;;;;;;;;;0.00;0.00;;;;;8.68;72.59;98018.69;2030921;29;46662;-65
2023/01/16 03:35:02;;;;;;;;;0.00;0.00;;;;;8.66;72.98;98007.34;2031009;29;45997;-63
2023/01/16 03:36:13;;;;;;;;;0.00;0.00;;;;;8.65;72.86;98027.66;2031105;29;45809;-65
2023/01/16 03:37:28;;;;;;;;;0.00;0.00;;;;;8.65;72.57;98019.72;2031005;29;46766;-64
2023/01/16 03:38:30;;;;;;;;;0.00;0.00;;;;;8.64;72.76;98038.28;2023338;29;46540;-64
2023/01/16 03:39:38;;;;;;;;;0.00;0.00;;;;;8.64;72.90;98002.16;2028252;28;45827;-63
2023/01/16 03:40:46;;;;;;;;;0.00;0.00;;;;;8.64;73.10;98003.91;2030523;29;46411;-64
2023/01/16 03:41:50;;;;;;;;;0.00;0.00;;;;;8.61;73.32;98004.09;2031264;29;45167;-63
2023/01/16 03:42:59;;;;;;;;;0.00;0.00;;;;;8.58;73.47;97993.72;2031097;29;46582;-63
2023/01/16 03:44:05;;;;;;;;;0.00;0.00;;;;;8.57;73.22;97978.78;2030064;28;46352;-64
2023/01/16 03:45:15;;;;;;;;;0.00;0.00;;;;;8.57;73.39;97999.94;2031223;29;46264;-64
2023/01/16 03:46:20;;;;;;;;;0.00;0.00;;;;;8.54;73.61;97987.75;2031776;29;45175;-64
2023/01/16 03:47:27;;;;;;;;;1.50;0.00;;;;;8.52;73.48;97982.56;2034417;28;45225;-65
2023/01/16 03:48:50;;;;;;;;;0.00;0.00;;;;;8.51;73.33;97978.22;2031439;28;46894;-64
2023/01/16 03:49:58;;;;;;;;;0.75;0.75;;;;;8.51;73.52;97974.69;2039135;28;46811;-64
2023/01/16 03:51:06;;;;;;;;;1.75;0.00;;;;;8.52;73.39;97969.34;2031102;29;46353;-64
2023/01/16 03:52:11;;;;;;;;;0.00;0.00;;;;;8.53;73.33;97954.34;2032229;28;46383;-63
2023/01/16 03:53:17;;;;;;;;;0.75;0.75;;;;;8.53;73.41;97963.13;2038973;28;46914;-64
2023/01/16 03:54:24;;;;;;;;;0.00;0.00;;;;;8.53;73.15;97968.41;2015427;28;46254;-63
2023/01/16 03:55:31;;;;;;;;;0.00;0.00;;;;;8.52;73.47;97934.97;2013263;28;47038;-64
2023/01/16 03:56:40;;;;;;;;;0.00;0.00;;;;;8.50;73.71;97939.47;2014253;28;46785;-63
2023/01/16 03:57:50;;;;;;;;;0.00;0.00;;;;;8.49;73.71;97958.91;2012463;29;46748;-64
2023/01/16 03:58:53;;;;;;;;;0.00;0.00;;;;;8.48;73.99;97957.22;2014347;29;45751;-64
2023/01/16 03:59:54;;;;;;;;;0.00;0.00;;;;;8.47;73.71;97931.72;2021937;29;46731;-65
2023/01/16 04:01:21;;;;;;;;;0.00;0.00;;;;;8.47;73.86;97942.31;2021859;28;45685;-64
2023/01/16 04:02:36;;;;;;;;;0.00;0.00;;;;;8.47;73.67;97955.53;2022346;28;45733;-64
2023/01/16 04:04:00;;;;;;;;;1.00;0.00;;;;;8.46;73.54;97922.09;2037662;28;46602;-64
2023/01/16 04:05:08;;;;;;;;;0.00;0.00;;;;;8.46;73.35;97926.53;2045568;28;46797;-64
2023/01/16 04:06:21;;;;;;;;;0.00;0.00;;;;;8.48;73.43;97937.88;2049276;28;46547;-64
2023/01/16 04:07:29;;;;;;;;;0.00;0.00;;;;;8.46;73.59;97937.09;2071489;27;46926;-63
2023/01/16 04:08:39;;;;;;;;;0.00;0.00;;;;;8.48;73.32;97924.66;2070840;28;46775;-64
2023/01/16 04:09:53;;;;;;;;;0.00;0.00;;;;;8.47;73.22;97918.50;2070974;27;46942;-65
2023/01/16 04:10:54;;;;;;;;;0.00;0.00;;;;;8.48;73.61;97929.94;2063216;28;45566;-64
2023/01/16 04:11:57;;;;;;;;;0.00;0.00;;;;;8.47;73.72;97920.31;2068910;28;46249;-64
2023/01/16 04:13:12;;;;;;;;;0.00;0.00;;;;;8.48;73.38;97911.44;2070996;28;46521;-65
2023/01/16 04:14:14;;;;;;;;;0.00;0.00;;;;;8.49;73.62;97929.84;2063064;28;46435;-64
2023/01/16 04:15:17;;;;;;;;;0.00;0.00;;;;;8.49;73.25;97923.72;2069297;28;45863;-65
2023/01/16 04:16:21;;;;;;;;;0.00;0.00;;;;;8.47;73.14;97893.88;2066175;27;46333;-64
2023/01/16 04:17:22;;;;;;;;;0.00;0.00;;;;;8.48;72.87;97900.88;2066241;28;46674;-64
2023/01/16 04:18:30;;;;;;;;;0.00;0.00;;;;;8.47;72.89;97900.03;2062820;28;46764;-64
2023/01/16 04:19:32;;;;;;;;;0.00;0.00;;;;;8.47;72.67;97878.03;2062248;28;45657;-65
2023/01/16 04:20:36;;;;;;;;;0.00;0.00;;;;;8.46;72.58;97884.25;2062362;28;46802;-65
2023/01/16 04:21:37;;;;;;;;;0.00;0.00;;;;;8.45;72.44;97870.19;2067053;28;47088;-64
2023/01/16 04:22:37;;;;;;;;;0.00;0.00;;;;;8.44;72.55;97871.13;2070970;28;46494;-65
2023/01/16 04:23:38;;;;;;;;;0.00;0.00;;;;;8.44;72.32;97873.78;2067788;28;46304;-63
2023/01/16 04:24:38;;;;;;;;;0.00;0.00;;;;;8.45;72.55;97877.28;2071338;27;47037;-65
2023/01/16 04:25:39;;;;;;;;;0.00;0.00;;;;;8.44;72.44;97871.13;2070776;27;46660;-64
2023/01/16 04:26:39;;;;;;;;;0.00;0.00;;;;;8.45;72.41;97862.25;2070384;28;46425;-65
2023/01/16 04:27:40;;;;;;;;;1.00;0.00;;;;;8.45;72.54;97859.63;2070072;27;46698;-63
2023/01/16 04:28:40;;;;;;;;;0.00;0.00;;;;;8.46;72.21;97855.19;2071092;27;44976;-65
2023/01/16 04:29:40;;;;;;;;;0.00;0.00;;;;;8.47;72.37;97859.53;2071002;28;46335;-64
2023/01/16 04:30:41;;;;;;;;;1.00;0.00;;;;;8.46;72.30;97852.53;2070165;28;46266;-64
2023/01/16 04:31:41;;;;;;;;;0.00;0.00;;;;;8.46;72.16;97855.19;2070344;28;46330;-64
2023/01/16 04:32:42;;;;;;;;;0.00;0.00;;;;;8.45;72.27;97849.03;2057699;28;46636;-64
2023/01/16 04:33:42;;;;;;;;;0.00;0.00;;;;;8.45;72.03;97864.06;2060197;28;46540;-64
2023/01/16 04:34:42;;;;;;;;;0.00;0.00;;;;;8.44;72.12;97844.69;2064418;28;47207;-64
2023/01/16 04:35:43;;;;;;;;;0.00;0.00;;;;;8.44;71.92;97838.56;2067894;28;45647;-64
2023/01/16 04:36:43;;;;;;;;;0.00;0.00;;;;;8.43;72.05;97839.50;2061563;28;45391;-64
2023/01/16 04:37:43;;;;;;;;;0.00;0.00;;;;;8.42;71.73;97829.88;2059065;28;46551;-65
2023/01/16 04:38:44;;;;;;;;;0.00;0.00;;;;;8.42;71.62;97832.53;2062585;28;46997;-64
2023/01/16 04:39:46;;;;;;;;;0.00;0.00;;;;;8.42;71.62;97816.69;2070473;28;45425;-64
2023/01/16 04:40:46;;;;;;;;;0.00;0.00;;;;;8.41;71.60;97817.63;2070276;28;46642;-64
2023/01/16 04:41:50;;;;;;;;;0.00;0.00;;;;;8.42;71.52;97821.97;2070734;28;46802;-64
2023/01/16 04:42:50;;;;;;;;;0.00;0.00;;;;;8.43;71.39;97826.31;2070315;28;46524;-65
2023/01/16 04:43:51;;;;;;;;;1.00;0.00;;;;;8.42;71.32;97812.25;2069827;28;46456;-63
2023/01/16 04:44:51;;;;;;;;;0.00;0.00;;;;;8.44;71.42;97809.50;2062876;28;46093;-65
2023/01/16 04:45:51;;;;;;;;;0.00;0.00;;;;;8.45;71.43;97811.19;2063113;28;46636;-63
2023/01/16 04:46:52;;;;;;;;;0.00;0.00;;;;;8.46;71.30;97797.88;2062928;28;46225;-65
2023/01/16 04:47:52;;;;;;;;;0.00;0.00;;;;;8.48;71.53;97792.50;2069699;27;46592;-63
2023/01/16 04:48:52;;;;;;;;;0.00;0.00;;;;;8.48;71.48;97790.72;2070890;28;46560;-63
2023/01/16 04:49:53;;;;;;;;;0.00;0.00;;;;;8.49;71.31;97789.78;2070891;28;46191;-64
2023/01/16 04:50:53;;;;;;;;;0.00;0.00;;;;;8.50;71.33;97782.69;2061866;28;46323;-64
2023/01/16 04:51:54;;;;;;;;;0.00;0.00;;;;;8.49;71.40;97784.50;2061206;28;46376;-64
2023/01/16 04:52:54;;;;;;;;;0.00;0.00;;;;;8.48;71.56;97788.06;2069953;28;46452;-64
2023/01/16 04:53:54;;;;;;;;;0.00;0.00;;;;;8.49;71.68;97773.06;2070927;28;46418;-64
2023/01/16 04:54:55;;;;;;;;;0.00;0.00;;;;;8.49;71.65;97775.72;2070878;27;46584;-64
2023/01/16 04:55:55;;;;;;;;;0.00;0.00;;;;;8.47;71.58;97756.47;2070413;28;46946;-63
2023/01/16 04:56:56;;;;;;;;;0.00;0.00;;;;;8.45;71.56;97753.91;2071488;28;45852;-63
2023/01/16 04:57:56;;;;;;;;;1.00;0.00;;;;;8.45;71.61;97775.06;2071096;28;46620;-64
2023/01/16 04:58:57;;;;;;;;;0.00;0.00;;;;;8.45;71.42;97750.41;2070632;28;45058;-64
2023/01/16 04:59:57;;;;;;;;;0.00;0.00;;;;;8.45;71.46;97753.91;2070282;27;46318;-64
2023/01/16 05:00:57;;;;;;;;;0.00;0.00;;;;;8.47;71.34;97740.59;2064163;28;46482;-63
2023/01/16 05:01:58;;;;;;;;;0.00;0.00;;;;;8.48;71.58;97737.88;2070262;28;46354;-64
2023/01/16 05:02:58;;;;;;;;;0.00;0.00;;;;;8.50;71.52;97737.75;2062184;28;46452;-64
2023/01/16 05:03:59;;;;;;;;;0.00;0.00;;;;;8.50;71.60;97720.13;2069052;28;46233;-65
2023/01/16 05:04:59;;;;;;;;;0.00;0.00;;;;;8.54;71.62;97716.38;2061778;28;46445;-65
2023/01/16 05:05:59;;;;;;;;;0.00;0.00;;;;;8.56;71.56;97708.34;2061662;28;46275;-65
2023/01/16 05:06:59;;;;;;;;;0.00;0.00;;;;;8.58;71.71;97709.09;2053799;28;46315;-65
2023/01/16 05:08:15;;;;;;;;;0.00;0.00;;;;;8.61;71.74;97713.31;2053920;28;46901;-64
2023/01/16 05:09:15;;;;;;;;;0.00;0.00;;;;;8.64;72.03;97702.56;2062539;28;46891;-64
2023/01/16 05:10:16;;;;;;;;;0.00;0.00;;;;;8.64;71.45;97707.84;2089773;28;45995;-64
2023/01/16 05:11:16;;;;;;;;;0.00;0.00;;;;;8.64;72.27;97692.88;2104296;28;45849;-64
2023/01/16 05:12:16;;;;;;;;;0.00;0.00;;;;;8.65;71.86;97697.19;2070771;28;46253;-64
2023/01/16 05:13:17;;;;;;;;;0.00;0.00;;;;;8.67;72.10;97689.16;2070780;27;45901;-64
2023/01/16 05:14:17;;;;;;;;;0.00;0.00;;;;;8.68;71.98;97681.13;2070393;27;47276;-64
2023/01/16 05:15:17;;;;;;;;;0.00;0.00;;;;;8.69;72.01;97674.91;2066810;28;46110;-64
2023/01/16 05:16:18;;;;;;;;;0.00;0.00;;;;;8.71;72.38;97683.59;2067988;28;46791;-64
2023/01/16 05:17:22;;;;;;;;;0.00;0.00;;;;;8.71;72.41;97667.72;2062202;28;46124;-63